sensor_id;sensor_type;location;lat;lon;timestamp;temperature;humidity
40622;DHT22;26324;52.040;11.528;2022-12-29T00:01:15;8.40;85.60
40622;DHT22;26324;52.040;11.528;2022-12-29T00:03:40;8.30;85.50
40622;DHT22;26324;52.040;11.528;2022-12-29T00:06:06;8.30;85.50
40622;DHT22;26324;52.040;11.528;2022-12-29T00:08:31;8.40;85.70
40622;DHT22;26324;52.040;11.528;2022-12-29T00:11:11;8.40;85.50
40622;DHT22;26324;52.040;11.528;2022-12-29T00:13:38;8.40;85.20
40622;DHT22;26324;52.040;11.528;2022-12-29T00:16:22;8.40;85.30
40622;DHT22;26324;52.040;11.528;2022-12-29T00:18:48;8.50;85.10
40622;DHT22;26324;52.040;11.528;2022-12-29T00:21:15;8.50;85.00
40622;DHT22;26324;52.040;11.528;2022-12-29T00:23:59;8.50;84.70
40622;DHT22;26324;52.040;11.528;2022-12-29T00:26:45;8.60;84.70
40622;DHT22;26324;52.040;11.528;2022-12-29T00:29:31;8.60;84.50
40622;DHT22;26324;52.040;11.528;2022-12-29T00:32:15;8.60;84.20
40622;DHT22;26324;52.040;11.528;2022-12-29T00:34:59;8.60;84.20
40622;DHT22;26324;52.040;11.528;2022-12-29T00:37:35;8.60;84.00
40622;DHT22;26324;52.040;11.528;2022-12-29T00:40:20;8.60;83.90
40622;DHT22;26324;52.040;11.528;2022-12-29T00:43:03;8.60;84.10
40622;DHT22;26324;52.040;11.528;2022-12-29T00:45:48;8.60;84.00
40622;DHT22;26324;52.040;11.528;2022-12-29T00:48:15;8.60;83.90
40622;DHT22;26324;52.040;11.528;2022-12-29T00:50:40;8.60;83.90
40622;DHT22;26324;52.040;11.528;2022-12-29T00:53:05;8.70;83.70
40622;DHT22;26324;52.040;11.528;2022-12-29T00:55:31;8.70;83.60
40622;DHT22;26324;52.040;11.528;2022-12-29T00:57:57;8.80;83.50
40622;DHT22;26324;52.040;11.528;2022-12-29T01:00:22;8.80;83.60
40622;DHT22;26324;52.040;11.528;2022-12-29T01:02:48;8.80;83.80
40622;DHT22;26324;52.040;11.528;2022-12-29T01:05:13;8.80;83.80
40622;DHT22;26324;52.040;11.528;2022-12-29T01:07:38;8.90;83.70
40622;DHT22;26324;52.040;11.528;2022-12-29T01:10:04;8.90;83.80
40622;DHT22;26324;52.040;11.528;2022-12-29T01:12:36;8.90;83.80
40622;DHT22;26324;52.040;11.528;2022-12-29T01:15:08;8.90;83.70
40622;DHT22;26324;52.040;11.528;2022-12-29T01:17:35;8.90;83.80
40622;DHT22;26324;52.040;11.528;2022-12-29T01:20:01;8.90;83.80
40622;DHT22;26324;52.040;11.528;2022-12-29T01:22:26;8.90;83.90
40622;DHT22;26324;52.040;11.528;2022-12-29T01:24:52;8.90;83.90
40622;DHT22;26324;52.040;11.528;2022-12-29T01:27:17;9.00;83.80
40622;DHT22;26324;52.040;11.528;2022-12-29T01:29:43;9.00;83.70
40622;DHT22;26324;52.040;11.528;2022-12-29T01:32:08;9.00;83.60
40622;DHT22;26324;52.040;11.528;2022-12-29T01:34:34;9.10;83.20
40622;DHT22;26324;52.040;11.528;2022-12-29T01:36:59;9.20;83.10
40622;DHT22;26324;52.040;11.528;2022-12-29T01:39:25;9.30;82.80
40622;DHT22;26324;52.040;11.528;2022-12-29T01:41:50;9.30;82.80
40622;DHT22;26324;52.040;11.528;2022-12-29T01:44:39;9.40;82.40
40622;DHT22;26324;52.040;11.528;2022-12-29T01:47:13;9.50;82.10
40622;DHT22;26324;52.040;11.528;2022-12-29T01:49:40;9.50;81.80
40622;DHT22;26324;52.040;11.528;2022-12-29T01:52:06;9.60;81.50
40622;DHT22;26324;52.040;11.528;2022-12-29T01:54:43;9.60;81.50
40622;DHT22;26324;52.040;11.528;2022-12-29T01:57:16;9.70;81.30
40622;DHT22;26324;52.040;11.528;2022-12-29T01:59:47;9.70;81.20
40622;DHT22;26324;52.040;11.528;2022-12-29T02:02:15;9.70;81.30
40622;DHT22;26324;52.040;11.528;2022-12-29T02:04:42;9.70;81.40
40622;DHT22;26324;52.040;11.528;2022-12-29T02:07:19;9.70;81.60
40622;DHT22;26324;52.040;11.528;2022-12-29T02:09:48;9.70;81.30
40622;DHT22;26324;52.040;11.528;2022-12-29T02:12:14;9.70;81.30
40622;DHT22;26324;52.040;11.528;2022-12-29T02:14:40;9.80;81.10
40622;DHT22;26324;52.040;11.528;2022-12-29T02:17:18;9.80;81.20
40622;DHT22;26324;52.040;11.528;2022-12-29T02:25:32;9.60;81.60
40622;DHT22;26324;52.040;11.528;2022-12-29T02:36:42;9.50;82.30
40622;DHT22;26324;52.040;11.528;2022-12-29T02:39:21;9.40;82.50
40622;DHT22;26324;52.040;11.528;2022-12-29T02:42:00;9.40;82.80
40622;DHT22;26324;52.040;11.528;2022-12-29T02:44:36;9.30;83.00
40622;DHT22;26324;52.040;11.528;2022-12-29T02:47:47;9.30;83.30
40622;DHT22;26324;52.040;11.528;2022-12-29T02:52:50;9.30;83.60
40622;DHT22;26324;52.040;11.528;2022-12-29T02:55:18;9.30;83.50
40622;DHT22;26324;52.040;11.528;2022-12-29T02:57:43;9.40;83.50
40622;DHT22;26324;52.040;11.528;2022-12-29T03:00:10;9.40;83.40
40622;DHT22;26324;52.040;11.528;2022-12-29T03:02:46;9.40;83.30
40622;DHT22;26324;52.040;11.528;2022-12-29T03:05:41;9.50;83.10
40622;DHT22;26324;52.040;11.528;2022-12-29T03:10:59;9.60;82.90
40622;DHT22;26324;52.040;11.528;2022-12-29T03:13:39;9.60;82.90
40622;DHT22;26324;52.040;11.528;2022-12-29T03:16:53;9.60;82.90
40622;DHT22;26324;52.040;11.528;2022-12-29T03:19:28;9.60;82.90
40622;DHT22;26324;52.040;11.528;2022-12-29T03:21:59;9.60;82.70
40622;DHT22;26324;52.040;11.528;2022-12-29T03:24:52;9.60;82.70
40622;DHT22;26324;52.040;11.528;2022-12-29T03:27:21;9.60;82.60
40622;DHT22;26324;52.040;11.528;2022-12-29T03:29:53;9.60;82.80
40622;DHT22;26324;52.040;11.528;2022-12-29T03:32:30;9.60;82.80
40622;DHT22;26324;52.040;11.528;2022-12-29T03:34:57;9.70;82.70
40622;DHT22;26324;52.040;11.528;2022-12-29T03:37:31;9.70;82.60
40622;DHT22;26324;52.040;11.528;2022-12-29T03:39:59;9.80;82.40
40622;DHT22;26324;52.040;11.528;2022-12-29T03:42:27;9.90;82.20
40622;DHT22;26324;52.040;11.528;2022-12-29T03:44:55;10.00;82.00
40622;DHT22;26324;52.040;11.528;2022-12-29T03:47:22;10.00;81.80
40622;DHT22;26324;52.040;11.528;2022-12-29T03:49:48;10.00;81.50
40622;DHT22;26324;52.040;11.528;2022-12-29T03:52:14;10.10;81.50
40622;DHT22;26324;52.040;11.528;2022-12-29T03:54:40;10.10;81.40
40622;DHT22;26324;52.040;11.528;2022-12-29T03:57:05;10.10;81.40
40622;DHT22;26324;52.040;11.528;2022-12-29T03:59:31;10.10;81.50
40622;DHT22;26324;52.040;11.528;2022-12-29T04:01:56;10.10;81.60
40622;DHT22;26324;52.040;11.528;2022-12-29T04:04:22;10.10;81.80
40622;DHT22;26324;52.040;11.528;2022-12-29T04:06:47;10.10;81.80
40622;DHT22;26324;52.040;11.528;2022-12-29T04:09:13;10.10;81.80
40622;DHT22;26324;52.040;11.528;2022-12-29T04:11:38;10.10;81.80
40622;DHT22;26324;52.040;11.528;2022-12-29T04:14:04;10.10;81.80
40622;DHT22;26324;52.040;11.528;2022-12-29T04:16:30;10.10;81.90
40622;DHT22;26324;52.040;11.528;2022-12-29T04:18:55;10.10;82.10
40622;DHT22;26324;52.040;11.528;2022-12-29T04:21:20;10.10;82.10
40622;DHT22;26324;52.040;11.528;2022-12-29T04:23:46;10.10;82.10
40622;DHT22;26324;52.040;11.528;2022-12-29T04:26:11;10.10;82.10
40622;DHT22;26324;52.040;11.528;2022-12-29T04:28:37;10.10;82.20
40622;DHT22;26324;52.040;11.528;2022-12-29T04:31:04;10.00;82.20
40622;DHT22;26324;52.040;11.528;2022-12-29T04:33:30;10.00;82.00
40622;DHT22;26324;52.040;11.528;2022-12-29T04:35:56;10.00;82.20
40622;DHT22;26324;52.040;11.528;2022-12-29T04:38:23;9.90;82.30
40622;DHT22;26324;52.040;11.528;2022-12-29T04:40:49;9.90;82.40
40622;DHT22;26324;52.040;11.528;2022-12-29T04:43:15;9.80;82.70
40622;DHT22;26324;52.040;11.528;2022-12-29T04:45:45;9.80;82.90
40622;DHT22;26324;52.040;11.528;2022-12-29T04:48:11;9.70;83.10
40622;DHT22;26324;52.040;11.528;2022-12-29T04:50:37;9.70;83.30
40622;DHT22;26324;52.040;11.528;2022-12-29T04:53:03;9.70;83.20
40622;DHT22;26324;52.040;11.528;2022-12-29T04:55:29;9.70;83.10
40622;DHT22;26324;52.040;11.528;2022-12-29T04:57:54;9.70;83.10
40622;DHT22;26324;52.040;11.528;2022-12-29T05:00:20;9.70;83.00
40622;DHT22;26324;52.040;11.528;2022-12-29T05:02:45;9.70;82.80
40622;DHT22;26324;52.040;11.528;2022-12-29T05:05:11;9.80;82.70
40622;DHT22;26324;52.040;11.528;2022-12-29T05:07:37;9.70;82.80
40622;DHT22;26324;52.040;11.528;2022-12-29T05:10:04;9.70;82.80
40622;DHT22;26324;52.040;11.528;2022-12-29T05:12:31;9.70;82.80
40622;DHT22;26324;52.040;11.528;2022-12-29T05:14:56;9.60;83.10
40622;DHT22;26324;52.040;11.528;2022-12-29T05:17:22;9.60;83.20
40622;DHT22;26324;52.040;11.528;2022-12-29T05:19:47;9.50;83.30
40622;DHT22;26324;52.040;11.528;2022-12-29T05:22:13;9.50;83.40
40622;DHT22;26324;52.040;11.528;2022-12-29T05:24:38;9.50;83.40
40622;DHT22;26324;52.040;11.528;2022-12-29T05:27:04;9.50;83.40
40622;DHT22;26324;52.040;11.528;2022-12-29T05:29:29;9.50;83.50
40622;DHT22;26324;52.040;11.528;2022-12-29T05:31:54;9.50;83.50
40622;DHT22;26324;52.040;11.528;2022-12-29T05:34:20;9.50;83.40
40622;DHT22;26324;52.040;11.528;2022-12-29T05:36:45;9.50;83.30
40622;DHT22;26324;52.040;11.528;2022-12-29T05:39:11;9.50;83.50
40622;DHT22;26324;52.040;11.528;2022-12-29T05:41:36;9.50;83.50
40622;DHT22;26324;52.040;11.528;2022-12-29T05:44:02;9.50;83.60
40622;DHT22;26324;52.040;11.528;2022-12-29T05:46:28;9.50;83.70
40622;DHT22;26324;52.040;11.528;2022-12-29T05:48:53;9.50;83.80
40622;DHT22;26324;52.040;11.528;2022-12-29T05:51:19;9.50;83.90
40622;DHT22;26324;52.040;11.528;2022-12-29T05:53:44;9.50;83.70
40622;DHT22;26324;52.040;11.528;2022-12-29T05:56:10;9.50;83.70
40622;DHT22;26324;52.040;11.528;2022-12-29T05:58:35;9.50;83.80
40622;DHT22;26324;52.040;11.528;2022-12-29T06:01:00;9.50;83.70
40622;DHT22;26324;52.040;11.528;2022-12-29T06:03:26;9.60;83.60
40622;DHT22;26324;52.040;11.528;2022-12-29T06:05:52;9.60;83.50
40622;DHT22;26324;52.040;11.528;2022-12-29T06:08:17;9.70;83.30
40622;DHT22;26324;52.040;11.528;2022-12-29T06:10:43;9.80;83.10
40622;DHT22;26324;52.040;11.528;2022-12-29T06:13:08;9.90;82.80
40622;DHT22;26324;52.040;11.528;2022-12-29T06:15:35;9.90;82.70
40622;DHT22;26324;52.040;11.528;2022-12-29T06:18:00;9.90;82.70
40622;DHT22;26324;52.040;11.528;2022-12-29T06:20:26;9.90;82.60
40622;DHT22;26324;52.040;11.528;2022-12-29T06:22:51;9.90;82.70
40622;DHT22;26324;52.040;11.528;2022-12-29T06:25:17;9.90;82.90
40622;DHT22;26324;52.040;11.528;2022-12-29T06:27:43;10.00;82.70
40622;DHT22;26324;52.040;11.528;2022-12-29T06:30:09;10.00;82.80
40622;DHT22;26324;52.040;11.528;2022-12-29T06:32:35;10.00;82.80
40622;DHT22;26324;52.040;11.528;2022-12-29T06:35:02;10.00;82.70
40622;DHT22;26324;52.040;11.528;2022-12-29T06:37:28;10.00;82.70
40622;DHT22;26324;52.040;11.528;2022-12-29T06:39:53;10.00;82.80
40622;DHT22;26324;52.040;11.528;2022-12-29T06:42:19;10.00;83.00
40622;DHT22;26324;52.040;11.528;2022-12-29T06:44:44;10.10;82.90
40622;DHT22;26324;52.040;11.528;2022-12-29T06:47:10;10.00;83.00
40622;DHT22;26324;52.040;11.528;2022-12-29T06:49:36;10.10;83.00
40622;DHT22;26324;52.040;11.528;2022-12-29T06:52:02;10.10;82.90
40622;DHT22;26324;52.040;11.528;2022-12-29T06:54:30;10.10;82.90
40622;DHT22;26324;52.040;11.528;2022-12-29T06:56:56;10.10;83.00
40622;DHT22;26324;52.040;11.528;2022-12-29T06:59:21;10.10;83.00
40622;DHT22;26324;52.040;11.528;2022-12-29T07:01:47;10.10;83.10
40622;DHT22;26324;52.040;11.528;2022-12-29T07:04:12;10.10;83.00
40622;DHT22;26324;52.040;11.528;2022-12-29T07:06:40;10.10;82.90
40622;DHT22;26324;52.040;11.528;2022-12-29T07:09:07;10.00;83.20
40622;DHT22;26324;52.040;11.528;2022-12-29T07:11:33;9.90;83.40
40622;DHT22;26324;52.040;11.528;2022-12-29T07:13:59;9.90;83.60
40622;DHT22;26324;52.040;11.528;2022-12-29T07:16:24;9.90;83.70
40622;DHT22;26324;52.040;11.528;2022-12-29T07:18:51;9.80;83.90
40622;DHT22;26324;52.040;11.528;2022-12-29T07:21:17;9.90;83.80
40622;DHT22;26324;52.040;11.528;2022-12-29T07:23:43;9.90;83.80
40622;DHT22;26324;52.040;11.528;2022-12-29T07:26:11;10.00;83.70
40622;DHT22;26324;52.040;11.528;2022-12-29T07:28:38;10.00;83.60
40622;DHT22;26324;52.040;11.528;2022-12-29T07:31:04;10.10;83.40
40622;DHT22;26324;52.040;11.528;2022-12-29T07:33:31;10.00;83.40
40622;DHT22;26324;52.040;11.528;2022-12-29T07:35:58;10.00;83.40
40622;DHT22;26324;52.040;11.528;2022-12-29T07:38:24;10.00;83.40
40622;DHT22;26324;52.040;11.528;2022-12-29T07:40:49;10.10;83.10
40622;DHT22;26324;52.040;11.528;2022-12-29T07:43:15;10.20;82.90
40622;DHT22;26324;52.040;11.528;2022-12-29T07:45:41;10.20;82.70
40622;DHT22;26324;52.040;11.528;2022-12-29T07:48:07;10.30;82.50
40622;DHT22;26324;52.040;11.528;2022-12-29T07:50:34;10.30;82.30
40622;DHT22;26324;52.040;11.528;2022-12-29T07:53:01;10.40;82.30
40622;DHT22;26324;52.040;11.528;2022-12-29T07:55:26;10.40;82.00
40622;DHT22;26324;52.040;11.528;2022-12-29T07:57:56;10.50;81.90
40622;DHT22;26324;52.040;11.528;2022-12-29T08:00:21;10.50;81.80
40622;DHT22;26324;52.040;11.528;2022-12-29T08:02:47;10.60;81.60
40622;DHT22;26324;52.040;11.528;2022-12-29T08:05:13;10.60;81.50
40622;DHT22;26324;52.040;11.528;2022-12-29T08:07:38;10.60;81.30
40622;DHT22;26324;52.040;11.528;2022-12-29T08:10:04;10.70;81.10
40622;DHT22;26324;52.040;11.528;2022-12-29T08:12:30;10.70;80.90
40622;DHT22;26324;52.040;11.528;2022-12-29T08:14:55;10.80;80.60
40622;DHT22;26324;52.040;11.528;2022-12-29T08:17:21;11.00;80.30
40622;DHT22;26324;52.040;11.528;2022-12-29T08:19:46;11.10;79.80
40622;DHT22;26324;52.040;11.528;2022-12-29T08:22:13;11.10;79.50
40622;DHT22;26324;52.040;11.528;2022-12-29T08:24:43;11.20;79.10
40622;DHT22;26324;52.040;11.528;2022-12-29T08:27:09;11.30;78.90
40622;DHT22;26324;52.040;11.528;2022-12-29T08:29:34;11.30;78.90
40622;DHT22;26324;52.040;11.528;2022-12-29T08:32:00;11.40;78.70
40622;DHT22;26324;52.040;11.528;2022-12-29T08:34:25;11.50;78.80
40622;DHT22;26324;52.040;11.528;2022-12-29T08:36:51;11.50;78.60
40622;DHT22;26324;52.040;11.528;2022-12-29T08:39:16;11.50;78.70
40622;DHT22;26324;52.040;11.528;2022-12-29T08:41:42;11.60;78.30
40622;DHT22;26324;52.040;11.528;2022-12-29T08:44:10;11.60;78.60
40622;DHT22;26324;52.040;11.528;2022-12-29T08:46:38;11.60;78.40
40622;DHT22;26324;52.040;11.528;2022-12-29T08:49:03;11.70;77.90
40622;DHT22;26324;52.040;11.528;2022-12-29T08:51:29;11.90;77.90
40622;DHT22;26324;52.040;11.528;2022-12-29T08:53:54;12.00;77.90
40622;DHT22;26324;52.040;11.528;2022-12-29T08:56:20;12.10;77.60
40622;DHT22;26324;52.040;11.528;2022-12-29T08:58:46;12.20;76.80
40622;DHT22;26324;52.040;11.528;2022-12-29T09:01:11;12.30;76.90
40622;DHT22;26324;52.040;11.528;2022-12-29T09:03:37;12.40;76.90
40622;DHT22;26324;52.040;11.528;2022-12-29T09:06:03;12.40;76.60
40622;DHT22;26324;52.040;11.528;2022-12-29T09:08:28;12.40;76.90
40622;DHT22;26324;52.040;11.528;2022-12-29T09:10:53;12.40;76.40
40622;DHT22;26324;52.040;11.528;2022-12-29T09:13:19;12.40;76.30
40622;DHT22;26324;52.040;11.528;2022-12-29T09:15:45;12.40;76.20
40622;DHT22;26324;52.040;11.528;2022-12-29T09:18:11;12.40;76.30
40622;DHT22;26324;52.040;11.528;2022-12-29T09:20:37;12.40;76.30
40622;DHT22;26324;52.040;11.528;2022-12-29T09:23:03;12.50;76.80
40622;DHT22;26324;52.040;11.528;2022-12-29T09:25:28;12.50;76.60
40622;DHT22;26324;52.040;11.528;2022-12-29T09:27:54;12.50;76.60
40622;DHT22;26324;52.040;11.528;2022-12-29T09:30:22;12.50;76.80
40622;DHT22;26324;52.040;11.528;2022-12-29T09:32:48;12.50;76.50
40622;DHT22;26324;52.040;11.528;2022-12-29T09:35:15;12.50;76.60
40622;DHT22;26324;52.040;11.528;2022-12-29T09:37:42;12.40;76.90
40622;DHT22;26324;52.040;11.528;2022-12-29T09:40:33;12.40;76.80
40622;DHT22;26324;52.040;11.528;2022-12-29T09:45:59;12.40;76.90
40622;DHT22;26324;52.040;11.528;2022-12-29T09:48:36;12.40;74.80
40622;DHT22;26324;52.040;11.528;2022-12-29T09:51:08;12.40;74.60
40622;DHT22;26324;52.040;11.528;2022-12-29T09:53:41;12.30;75.60
40622;DHT22;26324;52.040;11.528;2022-12-29T09:56:21;12.30;76.60
40622;DHT22;26324;52.040;11.528;2022-12-29T09:58:52;12.10;77.70
40622;DHT22;26324;52.040;11.528;2022-12-29T10:03:50;11.90;80.80
40622;DHT22;26324;52.040;11.528;2022-12-29T10:06:46;11.70;81.50
40622;DHT22;26324;52.040;11.528;2022-12-29T10:09:29;11.60;81.30
40622;DHT22;26324;52.040;11.528;2022-12-29T10:17:39;11.30;81.60
40622;DHT22;26324;52.040;11.528;2022-12-29T10:25:17;10.80;82.70
40622;DHT22;26324;52.040;11.528;2022-12-29T10:27:47;10.50;83.80
40622;DHT22;26324;52.040;11.528;2022-12-29T10:30:13;10.20;85.10
40622;DHT22;26324;52.040;11.528;2022-12-29T10:32:54;10.00;86.80
40622;DHT22;26324;52.040;11.528;2022-12-29T10:35:21;10.00;87.30
40622;DHT22;26324;52.040;11.528;2022-12-29T10:41:00;9.80;87.90
40622;DHT22;26324;52.040;11.528;2022-12-29T10:43:31;9.80;88.00
40622;DHT22;26324;52.040;11.528;2022-12-29T10:46:02;9.90;87.30
40622;DHT22;26324;52.040;11.528;2022-12-29T10:48:32;9.90;86.80
40622;DHT22;26324;52.040;11.528;2022-12-29T10:51:00;9.90;86.40
40622;DHT22;26324;52.040;11.528;2022-12-29T10:53:40;10.00;85.80
40622;DHT22;26324;52.040;11.528;2022-12-29T10:56:18;9.90;85.60
40622;DHT22;26324;52.040;11.528;2022-12-29T10:58:48;10.00;85.20
40622;DHT22;26324;52.040;11.528;2022-12-29T11:01:15;10.00;83.60
40622;DHT22;26324;52.040;11.528;2022-12-29T11:03:57;10.00;83.40
40622;DHT22;26324;52.040;11.528;2022-12-29T11:06:26;10.00;82.70
40622;DHT22;26324;52.040;11.528;2022-12-29T11:09:24;10.10;82.80
40622;DHT22;26324;52.040;11.528;2022-12-29T11:11:50;10.20;82.50
40622;DHT22;26324;52.040;11.528;2022-12-29T11:14:21;10.30;81.70
40622;DHT22;26324;52.040;11.528;2022-12-29T11:16:56;10.30;81.80
40622;DHT22;26324;52.040;11.528;2022-12-29T11:19:22;10.30;81.10
40622;DHT22;26324;52.040;11.528;2022-12-29T11:21:49;10.30;81.40
40622;DHT22;26324;52.040;11.528;2022-12-29T11:24:32;10.40;81.20
40622;DHT22;26324;52.040;11.528;2022-12-29T11:27:10;11.10;80.20
40622;DHT22;26324;52.040;11.528;2022-12-29T11:29:41;11.50;78.60
40622;DHT22;26324;52.040;11.528;2022-12-29T11:34:43;11.60;78.00
40622;DHT22;26324;52.040;11.528;2022-12-29T11:37:22;11.60;77.60
40622;DHT22;26324;52.040;11.528;2022-12-29T11:39:59;11.60;77.40
40622;DHT22;26324;52.040;11.528;2022-12-29T11:42:53;11.60;77.70
40622;DHT22;26324;52.040;11.528;2022-12-29T11:45:25;11.60;77.80
40622;DHT22;26324;52.040;11.528;2022-12-29T11:48:19;11.80;77.20
40622;DHT22;26324;52.040;11.528;2022-12-29T11:50:53;11.80;76.90
40622;DHT22;26324;52.040;11.528;2022-12-29T11:53:53;11.90;76.80
40622;DHT22;26324;52.040;11.528;2022-12-29T11:56:38;11.90;76.90
40622;DHT22;26324;52.040;11.528;2022-12-29T12:01:48;11.50;78.00
40622;DHT22;26324;52.040;11.528;2022-12-29T12:04:17;11.40;78.90
40622;DHT22;26324;52.040;11.528;2022-12-29T12:06:49;11.90;79.10
40622;DHT22;26324;52.040;11.528;2022-12-29T12:09:34;13.10;76.00
40622;DHT22;26324;52.040;11.528;2022-12-29T12:12:02;14.20;70.30
40622;DHT22;26324;52.040;11.528;2022-12-29T12:17:04;15.30;66.50
40622;DHT22;26324;52.040;11.528;2022-12-29T12:19:47;15.50;65.60
40622;DHT22;26324;52.040;11.528;2022-12-29T12:25:20;15.50;64.90
40622;DHT22;26324;52.040;11.528;2022-12-29T12:27:55;16.00;63.70
40622;DHT22;26324;52.040;11.528;2022-12-29T12:30:24;15.50;64.00
40622;DHT22;26324;52.040;11.528;2022-12-29T12:33:05;15.10;67.10
40622;DHT22;26324;52.040;11.528;2022-12-29T12:36:03;15.80;64.40
40622;DHT22;26324;52.040;11.528;2022-12-29T12:41:41;16.60;61.10
40622;DHT22;26324;52.040;11.528;2022-12-29T12:52:33;15.10;61.80
40622;DHT22;26324;52.040;11.528;2022-12-29T12:55:09;14.30;62.10
40622;DHT22;26324;52.040;11.528;2022-12-29T13:00:22;14.50;62.20
40622;DHT22;26324;52.040;11.528;2022-12-29T13:03:10;14.10;63.30
40622;DHT22;26324;52.040;11.528;2022-12-29T13:06:03;14.40;61.50
40622;DHT22;26324;52.040;11.528;2022-12-29T13:14:04;13.30;66.00
40622;DHT22;26324;52.040;11.528;2022-12-29T13:19:30;13.10;65.90
40622;DHT22;26324;52.040;11.528;2022-12-29T13:22:02;13.30;63.90
40622;DHT22;26324;52.040;11.528;2022-12-29T13:24:40;13.10;65.40
40622;DHT22;26324;52.040;11.528;2022-12-29T13:27:26;13.10;64.20
40622;DHT22;26324;52.040;11.528;2022-12-29T13:30:03;12.80;65.00
40622;DHT22;26324;52.040;11.528;2022-12-29T13:37:56;12.30;66.60
40622;DHT22;26324;52.040;11.528;2022-12-29T13:40:26;12.10;67.60
40622;DHT22;26324;52.040;11.528;2022-12-29T13:42:55;12.00;67.50
40622;DHT22;26324;52.040;11.528;2022-12-29T13:45:24;12.00;68.50
40622;DHT22;26324;52.040;11.528;2022-12-29T13:48:01;11.90;68.40
40622;DHT22;26324;52.040;11.528;2022-12-29T13:50:33;11.90;68.60
40622;DHT22;26324;52.040;11.528;2022-12-29T13:53:19;12.00;67.90
40622;DHT22;26324;52.040;11.528;2022-12-29T13:58:32;11.80;68.40
40622;DHT22;26324;52.040;11.528;2022-12-29T14:01:27;11.80;68.90
40622;DHT22;26324;52.040;11.528;2022-12-29T14:03:58;11.80;68.90
40622;DHT22;26324;52.040;11.528;2022-12-29T14:06:29;11.70;69.00
40622;DHT22;26324;52.040;11.528;2022-12-29T14:08:59;11.70;68.50
40622;DHT22;26324;52.040;11.528;2022-12-29T14:11:39;11.80;68.20
40622;DHT22;26324;52.040;11.528;2022-12-29T14:16:45;11.70;68.40
40622;DHT22;26324;52.040;11.528;2022-12-29T14:21:40;11.70;67.80
40622;DHT22;26324;52.040;11.528;2022-12-29T14:26:53;11.60;68.50
40622;DHT22;26324;52.040;11.528;2022-12-29T14:31:51;11.60;67.90
40622;DHT22;26324;52.040;11.528;2022-12-29T14:37:22;11.60;67.40
40622;DHT22;26324;52.040;11.528;2022-12-29T14:39:48;11.60;67.40
40622;DHT22;26324;52.040;11.528;2022-12-29T14:42:16;11.60;67.70
40622;DHT22;26324;52.040;11.528;2022-12-29T14:44:49;11.60;67.70
40622;DHT22;26324;52.040;11.528;2022-12-29T14:49:45;11.50;67.40
40622;DHT22;26324;52.040;11.528;2022-12-29T14:52:21;11.50;67.50
40622;DHT22;26324;52.040;11.528;2022-12-29T14:54:49;11.50;67.70
40622;DHT22;26324;52.040;11.528;2022-12-29T14:59:46;11.50;67.50
40622;DHT22;26324;52.040;11.528;2022-12-29T15:02:18;11.50;67.80
40622;DHT22;26324;52.040;11.528;2022-12-29T15:04:46;11.40;68.10
40622;DHT22;26324;52.040;11.528;2022-12-29T15:07:13;11.40;68.20
40622;DHT22;26324;52.040;11.528;2022-12-29T15:09:43;11.30;68.30
40622;DHT22;26324;52.040;11.528;2022-12-29T15:12:43;11.30;68.20
40622;DHT22;26324;52.040;11.528;2022-12-29T15:17:46;11.20;69.30
40622;DHT22;26324;52.040;11.528;2022-12-29T15:20:28;11.20;69.70
40622;DHT22;26324;52.040;11.528;2022-12-29T15:23:11;11.20;69.70
40622;DHT22;26324;52.040;11.528;2022-12-29T15:26:06;11.20;69.60
40622;DHT22;26324;52.040;11.528;2022-12-29T15:28:43;11.20;69.90
40622;DHT22;26324;52.040;11.528;2022-12-29T15:31:23;11.10;69.80
40622;DHT22;26324;52.040;11.528;2022-12-29T15:33:52;11.20;69.60
40622;DHT22;26324;52.040;11.528;2022-12-29T15:36:22;11.20;69.90
40622;DHT22;26324;52.040;11.528;2022-12-29T15:38:49;11.20;70.50
40622;DHT22;26324;52.040;11.528;2022-12-29T15:41:40;11.10;70.70
40622;DHT22;26324;52.040;11.528;2022-12-29T15:44:31;11.10;70.90
40622;DHT22;26324;52.040;11.528;2022-12-29T15:47:05;11.10;71.30
40622;DHT22;26324;52.040;11.528;2022-12-29T15:49:32;11.00;71.40
40622;DHT22;26324;52.040;11.528;2022-12-29T15:51:58;11.00;71.90
40622;DHT22;26324;52.040;11.528;2022-12-29T15:54:24;11.00;72.10
40622;DHT22;26324;52.040;11.528;2022-12-29T15:56:51;10.90;72.60
40622;DHT22;26324;52.040;11.528;2022-12-29T15:59:32;10.80;73.10
40622;DHT22;26324;52.040;11.528;2022-12-29T16:01:59;10.70;73.50
40622;DHT22;26324;52.040;11.528;2022-12-29T16:04:30;10.60;73.90
40622;DHT22;26324;52.040;11.528;2022-12-29T16:07:03;10.50;74.50
40622;DHT22;26324;52.040;11.528;2022-12-29T16:09:41;10.40;75.00
40622;DHT22;26324;52.040;11.528;2022-12-29T16:12:19;10.40;75.10
40622;DHT22;26324;52.040;11.528;2022-12-29T16:14:47;10.30;75.30
40622;DHT22;26324;52.040;11.528;2022-12-29T16:17:16;10.20;75.50
40622;DHT22;26324;52.040;11.528;2022-12-29T16:20:17;10.20;75.60
40622;DHT22;26324;52.040;11.528;2022-12-29T16:22:42;10.20;75.80
40622;DHT22;26324;52.040;11.528;2022-12-29T16:25:19;10.20;76.00
40622;DHT22;26324;52.040;11.528;2022-12-29T16:27:46;10.20;76.10
40622;DHT22;26324;52.040;11.528;2022-12-29T16:30:23;10.20;76.10
40622;DHT22;26324;52.040;11.528;2022-12-29T16:32:54;10.20;76.20
40622;DHT22;26324;52.040;11.528;2022-12-29T16:35:25;10.20;76.00
40622;DHT22;26324;52.040;11.528;2022-12-29T16:40:54;10.40;75.60
40622;DHT22;26324;52.040;11.528;2022-12-29T16:43:28;10.40;75.60
40622;DHT22;26324;52.040;11.528;2022-12-29T16:48:36;10.40;75.80
40622;DHT22;26324;52.040;11.528;2022-12-29T16:51:21;10.40;76.20
40622;DHT22;26324;52.040;11.528;2022-12-29T16:53:51;10.30;76.50
40622;DHT22;26324;52.040;11.528;2022-12-29T16:56:20;10.30;76.90
40622;DHT22;26324;52.040;11.528;2022-12-29T16:58:48;10.10;77.10
40622;DHT22;26324;52.040;11.528;2022-12-29T17:01:14;10.10;77.30
40622;DHT22;26324;52.040;11.528;2022-12-29T17:03:48;10.00;77.40
40622;DHT22;26324;52.040;11.528;2022-12-29T17:06:16;10.10;77.50
40622;DHT22;26324;52.040;11.528;2022-12-29T17:08:44;10.00;77.80
40622;DHT22;26324;52.040;11.528;2022-12-29T17:11:31;10.00;78.00
40622;DHT22;26324;52.040;11.528;2022-12-29T17:14:30;9.90;78.30
40622;DHT22;26324;52.040;11.528;2022-12-29T17:16:56;9.80;78.70
40622;DHT22;26324;52.040;11.528;2022-12-29T17:19:50;9.80;78.90
40622;DHT22;26324;52.040;11.528;2022-12-29T17:22:22;9.70;79.00
40622;DHT22;26324;52.040;11.528;2022-12-29T17:24:54;9.70;79.00
40622;DHT22;26324;52.040;11.528;2022-12-29T17:29:57;9.60;79.10
40622;DHT22;26324;52.040;11.528;2022-12-29T17:32:24;9.70;79.10
40622;DHT22;26324;52.040;11.528;2022-12-29T17:34:49;9.80;78.90